This is the latest recevied weather packets stored in our database for station/object W1ERB-13. If no packets are shown the sender has not sent any weather packets the latest 1 day(s).
| Time | Temp. | Humidity | Pressure | Rain* | Wind** | Luminosity | Snow |
|---|---|---|---|---|---|---|---|
| 1778021680 | 20° C | 60% | 1007.7 hPa | 0 mm | 1.34 m/s, 252° | 34 W/m² | - |
| 1778021376 | 20° C | 60% | 1007.6 hPa | 0 mm | 2.68 m/s, 190° | 38 W/m² | - |
| 1778021074 | 20° C | 60% | 1007.5 hPa | 0 mm | 1.34 m/s, 207° | 44 W/m² | - |
| 1778020771 | 20° C | 61% | 1007.4 hPa | 0 mm | 0.45 m/s, 222° | 47 W/m² | - |
| 1778020468 | 20.56° C | 60% | 1007.8 hPa | 0 mm | 1.79 m/s, 194° | 50 W/m² | - |
| 1778020164 | 20.56° C | 59% | 1007.8 hPa | 0 mm | 1.34 m/s, 185° | 52 W/m² | - |
| 1778019860 | 20.56° C | 59% | 1007.8 hPa | 0 mm | 0.89 m/s, 208° | 55 W/m² | - |
| 1778019556 | 20.56° C | 58% | 1007.9 hPa | 0 mm | 1.34 m/s, 91° | 62 W/m² | - |
| 1778019254 | 21.11° C | 58% | 1007.9 hPa | 0 mm | 1.79 m/s, 206° | 64 W/m² | - |
| 1778018951 | 21.11° C | 59% | 1007.8 hPa | 0 mm | 0.45 m/s, 231° | 66 W/m² | - |
| 1778018647 | 21.11° C | 58% | 1007.8 hPa | 0 mm | 3.13 m/s, 278° | 70 W/m² | - |
| 1778018345 | 21.11° C | 58% | 1007.9 hPa | 0 mm | 1.34 m/s, 277° | 74 W/m² | - |
| 1778018043 | 21.67° C | 57% | 1007.8 hPa | 0 mm | 1.34 m/s, 101° | 80 W/m² | - |
| 1778017741 | 21.11° C | 57% | 1007.8 hPa | 0 mm | 2.24 m/s, 342° | 90 W/m² | - |
| 1778017438 | 21.67° C | 58% | 1007.5 hPa | 0 mm | 1.34 m/s, 251° | 116 W/m² | - |
| 1778017135 | 21.67° C | 56% | 1007.4 hPa | 0 mm | 1.34 m/s, 231° | 118 W/m² | - |
| 1778016833 | 21.67° C | 57% | 1007.6 hPa | 0 mm | 1.34 m/s, 223° | 137 W/m² | - |
| 1778016529 | 21.67° C | 57% | 1007.6 hPa | 0 mm | 0.89 m/s, 179° | 147 W/m² | - |
| 1778016226 | 21.67° C | 56% | 1007.4 hPa | 0 mm | 0.89 m/s, 12° | 147 W/m² | - |
| 1778015922 | 21.11° C | 56% | 1007.5 hPa | 0 mm | 2.24 m/s, 240° | 136 W/m² | - |
| 1778015620 | 21.67° C | 57% | 1007.5 hPa | 0 mm | 0.89 m/s, 207° | 133 W/m² | - |
| 1778015316 | 21.67° C | 56% | 1007.4 hPa | 0 mm | 1.34 m/s, 235° | 143 W/m² | - |
| 1778015013 | 22.22° C | 55% | 1007.4 hPa | 0 mm | 0.89 m/s, 189° | 172 W/m² | - |
| 1778014710 | 22.22° C | 55% | 1007.7 hPa | 0 mm | 2.24 m/s, 286° | 146 W/m² | - |
| 1778014408 | 22.78° C | 54% | 1007.5 hPa | 0 mm | 1.34 m/s, 201° | 156 W/m² | - |
* Rain latest hour (hover to see other rain measurements)
** Current wind speed in m/s (hover to see current wind gust speed)